»·PEaware :: N4A KBOI-KYKM

N4A :: KBOI-KYKM

FLIGHT INFORMATION

Flight Status: Arrived
Operator: Privately registered:
United States
More flights under this callsign
Pilot: Alec D. (17934)
Aircraft: CESSNA 510 CITATION MUSTANG
(C510)
More flights by this aircraft type
Origin: KBOI Boise Air Terminal/Gowen
United States
Destination: KYKM Yakima Air Term/Mcallister
United States
More flights between these airports :: More routes between these airports
Route: +BOI V4 YKM
File this flight plan on PilotEdge
Remarks:
Altitude:
(Current/Filed)
26,000ft
Speed:
(Current/Filed)
330kts
Departed: 28-Feb-18 10:08 AM
Arrived: 28-Feb-18 11:18 AM
Distance/Time
Traveled:
257nm/1:10
Distance/Time
To Go:
Arrived

Flight Plot

Page will automatically refresh every two minutes.

Flight plan parsing failed; only flown route is shown


Map Options




Map Legend


Flown Route
Filed Route
Departure Airport
Arrival Airport
Navaid (VOR, NDB)
Fix

Horizontal Profiles

Position Reports

Time Latitude Longitude Heading Altitude Ground
Speed
28-Feb-18 09:48 43.570093 -116.226899 184 2873ft 0kts
28-Feb-18 09:49 43.570093 -116.226899 184 2873ft 0kts
28-Feb-18 09:50 43.570093 -116.226899 184 2873ft 0kts
28-Feb-18 09:51 43.570093 -116.226899 184 2873ft 0kts
28-Feb-18 09:52 43.570093 -116.226899 184 2873ft 0kts
28-Feb-18 09:53 43.570093 -116.226899 184 2873ft 0kts
28-Feb-18 09:54 43.570092 -116.226899 184 2873ft 0kts
28-Feb-18 09:55 43.570091 -116.226899 184 2873ft 0kts
28-Feb-18 09:56 43.570091 -116.226899 184 2873ft 0kts
28-Feb-18 09:57 43.570090 -116.226899 184 2873ft 0kts
28-Feb-18 09:58 43.570090 -116.226899 184 2873ft 0kts
28-Feb-18 09:59 43.570089 -116.226899 184 2873ft 0kts
28-Feb-18 10:00 43.570089 -116.226899 184 2873ft 0kts
28-Feb-18 10:01 43.570088 -116.226899 184 2873ft 0kts
28-Feb-18 10:02 43.570088 -116.226899 184 2873ft 0kts
28-Feb-18 10:03 43.570087 -116.226899 184 2873ft 0kts
28-Feb-18 10:04 43.570087 -116.226899 184 2873ft 0kts
28-Feb-18 10:05 43.570086 -116.226899 184 2873ft 0kts
28-Feb-18 10:06 43.570085 -116.226899 184 2873ft 0kts
28-Feb-18 10:07 43.570085 -116.226899 184 2873ft 0kts
28-Feb-18 10:08 43.570084 -116.226900 184 2873ft 0kts
28-Feb-18 10:09 43.570084 -116.226900 184 2873ft 0kts
28-Feb-18 10:10 43.569695 -116.227822 226 2873ft 6kts
28-Feb-18 10:11 43.569389 -116.230831 294 2873ft 16kts
28-Feb-18 10:12 43.570849 -116.235616 265 2873ft 5kts
28-Feb-18 10:13 43.570819 -116.236092 226 2873ft 0kts
28-Feb-18 10:14 43.570114 -116.236433 147 2873ft 7kts
28-Feb-18 10:15 43.562040 -116.212992 120 3457ft 106kts
28-Feb-18 10:16 43.543468 -116.161511 110 5307ft 185kts
28-Feb-18 10:17 43.520847 -116.094755 117 8108ft 202kts
28-Feb-18 10:18 43.494551 -116.018321 114 10472ft 229kts
28-Feb-18 10:19 43.449735 -115.965482 197 12920ft 221kts
28-Feb-18 10:20 43.432378 -116.024213 291 15265ft 184kts
28-Feb-18 10:21 43.467052 -116.075693 313 17402ft 188kts
28-Feb-18 10:22 43.504580 -116.126232 313 19400ft 188kts
28-Feb-18 10:23 43.542365 -116.177121 314 21189ft 191kts
28-Feb-18 10:24 43.583592 -116.228523 317 22179ft 223kts
28-Feb-18 10:25 43.636034 -116.291881 317 22189ft 271kts
28-Feb-18 10:26 43.692480 -116.360739 316 22533ft 265kts
28-Feb-18 10:27 43.745084 -116.425717 317 24421ft 239kts
28-Feb-18 10:28 43.792477 -116.483698 317 26053ft 226kts
28-Feb-18 10:29 43.843059 -116.545990 317 26200ft 261kts
28-Feb-18 10:30 43.900058 -116.616482 317 26197ft 284kts
28-Feb-18 10:31 43.959863 -116.690173 317 26196ft 288kts
28-Feb-18 10:32 44.019525 -116.764179 317 26199ft 287kts
28-Feb-18 10:33 44.079101 -116.838745 317 26199ft 287kts
28-Feb-18 10:34 44.138752 -116.912720 317 26199ft 287kts
28-Feb-18 10:35 44.198444 -116.987340 317 26194ft 287kts
28-Feb-18 10:36 44.257857 -117.061879 316 26194ft 288kts
28-Feb-18 10:37 44.317114 -117.136834 316 26189ft 287kts
28-Feb-18 10:38 44.376617 -117.212398 316 26171ft 289kts
28-Feb-18 10:39 44.436512 -117.287522 316 26168ft 288kts
28-Feb-18 10:40 44.495967 -117.362811 316 26154ft 287kts
28-Feb-18 10:41 44.554888 -117.437925 315 26131ft 287kts
28-Feb-18 10:42 44.613843 -117.513427 315 26125ft 286kts
28-Feb-18 10:43 44.672591 -117.588888 315 26119ft 287kts
28-Feb-18 10:44 44.731323 -117.664291 315 26113ft 286kts
28-Feb-18 10:45 44.799709 -117.752820 315 26111ft 286kts
28-Feb-18 10:46 44.848285 -117.816128 315 26109ft 286kts
28-Feb-18 10:47 44.907118 -117.891424 315 26107ft 286kts
28-Feb-18 10:48 44.965895 -117.967314 315 26097ft 286kts
28-Feb-18 10:49 45.024445 -118.043436 315 26082ft 286kts
28-Feb-18 10:50 45.082928 -118.119834 314 26071ft 285kts
28-Feb-18 10:51 45.141246 -118.196170 314 26062ft 286kts
28-Feb-18 10:52 45.199551 -118.272610 314 26055ft 286kts
28-Feb-18 10:53 45.257805 -118.349628 314 26049ft 286kts
28-Feb-18 10:54 45.316006 -118.426646 314 26031ft 286kts
28-Feb-18 10:55 45.374510 -118.503556 313 26016ft 286kts
28-Feb-18 10:56 45.432577 -118.580967 313 26012ft 286kts
28-Feb-18 10:57 45.490513 -118.658614 313 26021ft 286kts
28-Feb-18 10:58 45.549194 -118.736252 313 26017ft 288kts
28-Feb-18 10:59 45.607369 -118.813744 313 25901ft 280kts
28-Feb-18 11:00 45.664169 -118.890398 313 24408ft 275kts
28-Feb-18 11:01 45.716559 -118.965462 308 22908ft 259kts
28-Feb-18 11:02 45.762033 -119.042839 307 21584ft 251kts
28-Feb-18 11:03 45.807419 -119.120422 307 20176ft 257kts
28-Feb-18 11:04 45.853861 -119.199535 307 18676ft 260kts
28-Feb-18 11:05 45.900627 -119.278846 307 17177ft 261kts
28-Feb-18 11:06 45.947290 -119.358188 307 15674ft 256kts
28-Feb-18 11:07 45.992891 -119.435800 307 14210ft 253kts
28-Feb-18 11:08 46.038050 -119.513118 307 12811ft 252kts
28-Feb-18 11:09 46.082560 -119.589882 307 12054ft 246kts
28-Feb-18 11:10 46.126529 -119.666260 307 12045ft 248kts
28-Feb-18 11:11 46.170915 -119.742777 307 12044ft 249kts
28-Feb-18 11:12 46.215343 -119.819723 307 10985ft 246kts
28-Feb-18 11:13 46.258467 -119.894524 306 10058ft 240kts
28-Feb-18 11:14 46.306457 -119.964095 314 8910ft 249kts
28-Feb-18 11:15 46.357133 -120.030580 315 7305ft 236kts
28-Feb-18 11:16 46.404348 -120.094004 315 6061ft 226kts
28-Feb-18 11:17 46.448925 -120.157178 315 6003ft 221kts
28-Feb-18 11:18 46.481942 -120.230162 295 5395ft 211kts
28-Feb-18 11:19 46.505168 -120.301169 300 4438ft 179kts
28-Feb-18 11:20 46.523147 -120.362162 289 3562ft 150kts
28-Feb-18 11:21 46.536675 -120.416395 290 2714ft 134kts
28-Feb-18 11:22 46.547373 -120.459636 291 2139ft 98kts
28-Feb-18 11:23 46.556294 -120.494580 288 1633ft 93kts
28-Feb-18 11:24 46.565043 -120.529565 289 1147ft 86kts
28-Feb-18 11:25 46.568763 -120.542463 10 1097ft 9kts
28-Feb-18 11:26 46.569997 -120.543297 0 1097ft 1kts
28-Feb-18 11:27 46.570019 -120.543297 0 1097ft 0kts
28-Feb-18 11:28 46.570019 -120.543297 0 1097ft 0kts
28-Feb-18 11:29 46.570019 -120.543297 0 1097ft 0kts
28-Feb-18 11:30 46.570019 -120.543297 0 1097ft 0kts

Navigation Log

Ident Type
Flight plan parsing failed, navigation log unavailable